• Join FlightAware (Why Join?)
  • Login
  • US Flag 
11:42PM EDT


 

Airport Tracker/Info


-or-


 

Live Flight TrackerFlight Track Log ✈ AWE3418 ✈ 30-May-2013 ✈ KPHL - KMHT

Flight Track Log - Related Links

Times and Time Zones

All times are in EDT time to prevent confusion due to time zone crossing. See the AWE3418 flight status page for this flight to view local times or setup timezone preferences in your user account.

Time Position Orientation Groundspeed Altitude Reporting Facility
EDT Latitude Longitude Course Direction KTS MPH feet Rate Location/Type
07:13PM 39.8667 -75.2667 37° Northeast 154 177 800  Level Philadelphia TRACON
07:14PM 39.8167 -75.3333 226° Southwest 220 253 2,800 1,800 Climbing Philadelphia TRACON
07:15PM 39.7500 -75.3667 201° Southwest 282 325 5,000 2,460 Climbing Philadelphia TRACON
07:16PM 39.8167 -74.8751 90° East  Level FlightAware Approximate
07:16PM 39.7167 -75.2500 110° East 299 344 8,300  Level Philadelphia TRACON
07:17PM 39.8002 -74.7842 105° East  Level FlightAware Approximate
07:17PM 39.7333 -75.1667 75° East 301 346 10,800  Level Philadelphia TRACON
07:18PM 39.7873 -74.6960 37° Northeast  Level FlightAware Approximate
07:19PM 39.8444 -74.6390 37° Northeast  Level FlightAware Approximate
07:19PM 39.7614 -74.9728 79° East 308 354 12,100  Level New York Center
07:20PM 39.7733 -74.8708 81° East 314 361 13,100 1,680 Climbing New York Center
07:21PM 39.7925 -74.7422 79° East 314 361 15,500 2,160 Climbing New York Center
07:22PM 39.8536 -74.6567 47° Northeast 303 349 17,500 1,800 Climbing New York Center
07:23PM 39.9269 -74.5847 37° Northeast 303 349 19,200 1,680 Climbing New York Center
07:24PM 39.9956 -74.5208 35° Northeast 327 376 20,900 1,620 Climbing New York Center
07:25PM 40.0861 -74.4308 37° Northeast 348 400 22,500 1,440 Climbing New York Center
07:26PM 40.1678 -74.3508 37° Northeast 354 407 23,900 1,620 Climbing New York Center
07:27PM 40.2553 -74.2819 31° Northeast 365 420 25,800 1,500 Climbing New York Center
07:28PM 40.3428 -74.2075 33° Northeast 365 420 27,000 1,320 Climbing New York Center
07:29PM 40.4344 -74.1358 31° Northeast 377 434 28,500 1,140 Climbing New York Center
07:32PM 40.6669 -73.9478 32° Northeast 388 447 31,000 660 Climbing Boston Center
07:33PM 40.7553 -73.8758 32° Northeast 388 447 31,000  Level Boston Center
07:34PM 40.8417 -73.8064 31° Northeast 376 433 31,000  Level Boston Center
07:35PM 40.9419 -73.7892 North 346 398 31,000  Level Boston Center
07:36PM 41.0419 -73.7914 359° North 346 398 31,000  Level Boston Center
07:37PM 41.1458 -73.8017 356° North 357 411 31,000  Level Boston Center
07:38PM 41.2481 -73.8067 358° North 363 418 31,000  Level Boston Center
07:39PM 41.3481 -73.8117 358° North 363 418 31,000  Level Boston Center
07:40PM 41.4481 -73.8136 359° North 363 418 31,000  Level Boston Center
07:41PM 41.5522 -73.8186 358° North 363 418 31,000  Level Boston Center
07:42PM 41.6519 -73.8236 358° North 363 418 31,000  Level Boston Center
07:43PM 41.7564 -73.8233 360° North 363 418 31,000  Level Boston Center
07:44PM 41.8417 -73.8222 North 357 411 31,000  Level Boston Center
07:45PM 41.9461 -73.8050 North 357 411 31,000 -480 Level Boston Center
07:46PM 42.0183 -73.7031 46° Northeast 347 399 30,100 -1,380 Descending Boston Center
07:47PM 42.0925 -73.5731 52° Northeast 352 405 28,300 -1,800 Descending Boston Center
07:48PM 42.1542 -73.4594 54° Northeast 369 425 26,600 -1,680 Descending Boston Center
07:49PM 42.2111 -73.3539 54° Northeast 374 430 25,000 -1,500 Descending Boston Center
07:50PM 42.2619 -73.2647 52° Northeast 354 407 23,700 -1,320 Descending Boston Center
07:51PM 42.3189 -73.1617 53° Northeast 340 391 22,400 -1,320 Descending Boston Center
07:52PM 42.3842 -73.0444 53° Northeast 350 403 21,100 -1,260 Descending Boston Center
07:53PM 42.4389 -72.9408 54° Northeast 344 396 19,900 -1,080 Descending Boston Center
07:54PM 42.4933 -72.8456 52° Northeast 327 376 19,000 -480 Descending Boston Center
07:55PM 42.5356 -72.7528 58° Northeast 322 371 19,000  Level Boston Center
07:56PM 42.5711 -72.6486 65° Northeast 300 345 19,000  Level Boston Center
07:57PM 42.6131 -72.5389 63° Northeast 295 339 19,000 -600 Level Boston Center
07:58PM 42.6464 -72.4372 66° East 295 339 17,800 -1,500 Descending Boston Center
07:59PM 42.6817 -72.3356 65° Northeast 295 339 16,100 -1,680 Descending Boston Center
08:00PM 42.7086 -72.2536 66° East 282 325 14,500 -1,680 Descending Boston Center
08:01PM 42.7397 -72.1489 68° East 263 303 12,800 -1,560 Descending Boston Center
08:02PM 42.7603 -72.0697 71° East 251 289 11,400 -1,560 Descending Boston Center
08:03PM 42.7892 -71.9706 68° East 251 289 9,700 -1,560 Descending Boston Center
08:04PM 42.8097 -71.8939 70° East 246 283 8,300 -1,440 Descending Boston Center
08:05PM 42.8364 -71.7975 69° East 246 283 6,900 -1,320 Descending Boston Center
08:06PM 42.8567 -71.7178 71° East 246 283 5,700 -1,260 Descending Boston Center
08:07PM 42.8811 -71.6297 69° East 239 275 4,400 -900 Descending Boston Center
08:08PM 42.8867 -71.5561 84° East 221 254 4,000 -240 Descending Boston Center
08:09PM 42.8322 -71.5058 146° Southeast 179 206 4,000  Level Boston Center
08:10PM 42.7861 -71.4725 152° Southeast 191 220 4,100 -480 Climbing Boston Center
08:11PM 42.7731 -71.4106 106° East 158 182 3,100 -1,020 Descending Boston Center